Reserve, Indiana
Current Conditions -  °F | °C
As of 7:35 PM on Sunday 25 Jan 2015 (Local Time) from KPRG Reporting Station
Overcast Overcast  
Wind Chill: 19°   Ceiling: 1000
Heat Index: 31°   Visibility: 10mi
Dew Point: 30°   Wind: 20mph
Humidity: 96%   Direction: 40°NE
Pressure: 29.8"   Gusts: 25mph
Location:  39.8207°N, 87.3335°W
Report Text: KPRG 260035Z AUTO 04017G22KT 10SM OVC010 M01/M01 A2980 RMK AO2 T10061011
Loading
Personal Weather Stations






























Interactive Weather Map New forecast layout! Learn more

10-Day Weather Forecast

Advertisements
Track Severe Weather on mobile